KSPB

Scappoose Industrial Airpark

Scappoose, Oregon, USA
METAR KSPB 150053Z AUTO 01008KT 4SM HZ CLR 34/09 A2976 RMK AO2 SLP078 T03390089
Observed Flight Rules
Aug-15 @ 00:53 UTC (13 minutes ago) Marginal Visual Flight Rules
Wind Visibility Clouds Conditions
10° at 8 knots 4 miles
  • Clear skies
  • Haze
Temperatures Readings
Current 34°C / 93°F
Dewpoint 9°C / 48°F
Humidity 21%
Altimeter 29.76" Hg
Pressure 1007.8 hPa
Elevation 14
METAR KSPB 150053Z AUTO 01008KT 4SM HZ CLR 34/09 A2976 RMK AO2 SLP078 T03390089
Observed Flight Rules
Aug-15 @ 00:53 UTC
(13 minutes ago)
MVFR
Wind Visibility
10° at 8 knots 4 miles
Clouds
  • Clear skies
Conditions
  • Haze
Temperature Dewpoint
34°C / 93°F 9°C / 48°F
Humidity Altimeter Pressure
21% 29.76" Hg 1007.8 hPa